sensor_id;sensor_type;location;lat;lon;timestamp;pressure;altitude;pressure_sealevel;temperature;humidity
63535;BME280;55128;50.230;18.944;2023-08-30T00:00:14;97419.66;;;17.32;100.00
63535;BME280;55128;50.230;18.944;2023-08-30T00:05:15;97417.28;;;17.29;100.00
63535;BME280;55128;50.230;18.944;2023-08-30T00:10:15;97408.53;;;17.27;100.00
63535;BME280;55128;50.230;18.944;2023-08-30T00:15:16;97387.09;;;17.27;100.00
63535;BME280;55128;50.230;18.944;2023-08-30T00:20:16;97382.69;;;17.26;100.00
63535;BME280;55128;50.230;18.944;2023-08-30T00:25:17;97385.78;;;17.41;100.00
63535;BME280;55128;50.230;18.944;2023-08-30T00:30:17;97368.88;;;17.31;100.00
63535;BME280;55128;50.230;18.944;2023-08-30T00:35:18;97378.59;;;17.02;100.00
63535;BME280;55128;50.230;18.944;2023-08-30T00:40:23;97384.69;;;17.04;100.00
63535;BME280;55128;50.230;18.944;2023-08-30T00:45:24;97374.25;;;16.92;100.00
63535;BME280;55128;50.230;18.944;2023-08-30T00:50:24;97380.31;;;17.03;100.00
63535;BME280;55128;50.230;18.944;2023-08-30T00:55:25;97370.56;;;17.02;100.00
63535;BME280;55128;50.230;18.944;2023-08-30T01:00:25;97377.47;;;17.15;100.00
63535;BME280;55128;50.230;18.944;2023-08-30T01:05:25;97375.50;;;17.17;100.00
63535;BME280;55128;50.230;18.944;2023-08-30T01:10:52;97374.53;;;17.18;100.00
63535;BME280;55128;50.230;18.944;2023-08-30T01:15:54;97363.38;;;17.13;100.00
63535;BME280;55128;50.230;18.944;2023-08-30T01:20:56;97359.00;;;17.02;100.00
63535;BME280;55128;50.230;18.944;2023-08-30T01:26:09;97366.19;;;17.11;100.00
63535;BME280;55128;50.230;18.944;2023-08-30T01:31:12;97369.72;;;17.02;100.00
63535;BME280;55128;50.230;18.944;2023-08-30T01:36:13;97379.75;;;17.00;100.00
63535;BME280;55128;50.230;18.944;2023-08-30T01:41:15;97375.94;;;17.12;100.00
63535;BME280;55128;50.230;18.944;2023-08-30T01:46:17;97360.41;;;17.06;100.00
63535;BME280;55128;50.230;18.944;2023-08-30T01:51:19;97355.63;;;16.90;100.00
63535;BME280;55128;50.230;18.944;2023-08-30T01:56:20;97352.81;;;17.01;100.00
63535;BME280;55128;50.230;18.944;2023-08-30T02:01:20;97361.69;;;16.92;100.00
63535;BME280;55128;50.230;18.944;2023-08-30T02:06:24;97370.44;;;16.94;100.00
63535;BME280;55128;50.230;18.944;2023-08-30T02:11:27;97381.88;;;16.96;100.00
63535;BME280;55128;50.230;18.944;2023-08-30T02:16:28;97375.09;;;16.92;100.00
63535;BME280;55128;50.230;18.944;2023-08-30T02:21:29;97384.69;;;16.85;100.00
63535;BME280;55128;50.230;18.944;2023-08-30T02:26:30;97369.75;;;16.82;100.00
63535;BME280;55128;50.230;18.944;2023-08-30T02:31:30;97378.06;;;16.89;100.00
63535;BME280;55128;50.230;18.944;2023-08-30T02:36:31;97368.59;;;16.85;100.00
63535;BME280;55128;50.230;18.944;2023-08-30T02:41:31;97364.66;;;16.89;100.00
63535;BME280;55128;50.230;18.944;2023-08-30T02:46:31;97357.03;;;16.84;100.00
63535;BME280;55128;50.230;18.944;2023-08-30T02:51:32;97357.03;;;16.94;100.00
63535;BME280;55128;50.230;18.944;2023-08-30T02:56:32;97362.78;;;16.80;100.00
63535;BME280;55128;50.230;18.944;2023-08-30T03:01:33;97371.13;;;16.77;100.00
63535;BME280;55128;50.230;18.944;2023-08-30T03:06:34;97354.19;;;16.76;100.00
63535;BME280;55128;50.230;18.944;2023-08-30T03:11:34;97345.59;;;16.73;100.00
63535;BME280;55128;50.230;18.944;2023-08-30T03:16:34;97347.97;;;16.76;100.00
63535;BME280;55128;50.230;18.944;2023-08-30T03:21:35;97351.94;;;16.62;100.00
63535;BME280;55128;50.230;18.944;2023-08-30T03:26:35;97353.34;;;16.66;100.00
63535;BME280;55128;50.230;18.944;2023-08-30T03:31:36;97367.00;;;16.63;100.00
63535;BME280;55128;50.230;18.944;2023-08-30T03:36:37;97365.72;;;16.57;100.00
63535;BME280;55128;50.230;18.944;2023-08-30T03:41:37;97361.06;;;16.40;100.00
63535;BME280;55128;50.230;18.944;2023-08-30T03:46:38;97359.53;;;16.47;100.00
63535;BME280;55128;50.230;18.944;2023-08-30T03:51:41;97358.97;;;16.53;100.00
63535;BME280;55128;50.230;18.944;2023-08-30T03:56:45;97376.03;;;16.52;100.00
63535;BME280;55128;50.230;18.944;2023-08-30T04:01:51;97386.34;;;16.66;100.00
63535;BME280;55128;50.230;18.944;2023-08-30T04:06:54;97381.09;;;16.55;100.00
63535;BME280;55128;50.230;18.944;2023-08-30T04:11:54;97388.28;;;16.55;100.00
63535;BME280;55128;50.230;18.944;2023-08-30T04:16:55;97369.09;;;16.49;100.00
63535;BME280;55128;50.230;18.944;2023-08-30T04:21:55;97372.50;;;16.51;100.00
63535;BME280;55128;50.230;18.944;2023-08-30T04:26:56;97368.25;;;16.39;100.00
63535;BME280;55128;50.230;18.944;2023-08-30T04:31:56;97373.38;;;16.52;100.00
63535;BME280;55128;50.230;18.944;2023-08-30T04:36:57;97374.75;;;16.46;100.00
63535;BME280;55128;50.230;18.944;2023-08-30T04:41:58;97377.00;;;16.51;100.00
63535;BME280;55128;50.230;18.944;2023-08-30T04:46:58;97387.47;;;16.54;100.00
63535;BME280;55128;50.230;18.944;2023-08-30T04:51:59;97376.88;;;16.43;100.00
63535;BME280;55128;50.230;18.944;2023-08-30T04:56:59;97385.72;;;16.33;100.00
63535;BME280;55128;50.230;18.944;2023-08-30T05:01:59;97378.16;;;16.48;100.00
63535;BME280;55128;50.230;18.944;2023-08-30T05:07:00;97369.97;;;16.50;100.00
63535;BME280;55128;50.230;18.944;2023-08-30T05:12:01;97368.84;;;16.52;100.00
63535;BME280;55128;50.230;18.944;2023-08-30T05:17:02;97374.50;;;16.59;100.00
63535;BME280;55128;50.230;18.944;2023-08-30T05:22:02;97376.88;;;16.52;100.00
63535;BME280;55128;50.230;18.944;2023-08-30T05:27:03;97368.84;;;16.62;100.00
63535;BME280;55128;50.230;18.944;2023-08-30T05:32:04;97371.94;;;16.48;100.00
63535;BME280;55128;50.230;18.944;2023-08-30T05:37:05;97380.00;;;16.48;100.00
63535;BME280;55128;50.230;18.944;2023-08-30T05:42:05;97371.97;;;16.67;100.00
63535;BME280;55128;50.230;18.944;2023-08-30T05:47:05;97382.69;;;16.67;100.00
63535;BME280;55128;50.230;18.944;2023-08-30T05:52:06;97391.97;;;16.54;100.00
63535;BME280;55128;50.230;18.944;2023-08-30T05:57:06;97397.88;;;16.57;100.00
63535;BME280;55128;50.230;18.944;2023-08-30T06:02:07;97398.44;;;16.51;99.72
63535;BME280;55128;50.230;18.944;2023-08-30T06:07:08;97404.69;;;16.61;99.63
63535;BME280;55128;50.230;18.944;2023-08-30T06:12:08;97410.75;;;16.54;98.97
63535;BME280;55128;50.230;18.944;2023-08-30T06:17:08;97408.19;;;16.52;99.14
63535;BME280;55128;50.230;18.944;2023-08-30T06:22:09;97411.44;;;16.65;99.26
63535;BME280;55128;50.230;18.944;2023-08-30T06:27:09;97409.91;;;16.73;97.96
63535;BME280;55128;50.230;18.944;2023-08-30T06:32:10;97416.28;;;16.91;98.25
63535;BME280;55128;50.230;18.944;2023-08-30T06:37:10;97416.16;;;16.93;97.44
63535;BME280;55128;50.230;18.944;2023-08-30T06:42:11;97414.47;;;17.01;97.20
63535;BME280;55128;50.230;18.944;2023-08-30T06:47:13;97419.41;;;17.16;96.31
63535;BME280;55128;50.230;18.944;2023-08-30T06:52:13;97423.63;;;17.18;95.73
63535;BME280;55128;50.230;18.944;2023-08-30T06:57:13;97428.72;;;17.02;96.02
63535;BME280;55128;50.230;18.944;2023-08-30T07:02:14;97419.97;;;17.00;96.04
63535;BME280;55128;50.230;18.944;2023-08-30T07:07:14;97427.47;;;17.16;94.97
63535;BME280;55128;50.230;18.944;2023-08-30T07:12:14;97438.59;;;17.21;93.82
63535;BME280;55128;50.230;18.944;2023-08-30T07:17:15;97448.22;;;17.14;94.89
63535;BME280;55128;50.230;18.944;2023-08-30T07:22:15;97452.88;;;17.21;93.91
63535;BME280;55128;50.230;18.944;2023-08-30T07:27:16;97460.63;;;16.95;95.84
63535;BME280;55128;50.230;18.944;2023-08-30T07:32:17;97457.38;;;17.01;95.36
63535;BME280;55128;50.230;18.944;2023-08-30T07:37:20;97460.00;;;16.82;96.46
63535;BME280;55128;50.230;18.944;2023-08-30T07:42:21;97453.28;;;16.97;97.08
63535;BME280;55128;50.230;18.944;2023-08-30T07:47:21;97473.19;;;17.04;96.07
63535;BME280;55128;50.230;18.944;2023-08-30T07:52:21;97466.13;;;17.03;96.03
63535;BME280;55128;50.230;18.944;2023-08-30T07:57:22;97464.28;;;17.33;95.55
63535;BME280;55128;50.230;18.944;2023-08-30T08:02:22;97469.59;;;17.82;92.78
63535;BME280;55128;50.230;18.944;2023-08-30T08:07:22;97463.81;;;18.24;89.97
63535;BME280;55128;50.230;18.944;2023-08-30T08:12:25;97467.56;;;18.51;89.19
63535;BME280;55128;50.230;18.944;2023-08-30T08:17:25;97470.81;;;18.44;87.80
63535;BME280;55128;50.230;18.944;2023-08-30T08:22:26;97473.34;;;18.74;85.66
63535;BME280;55128;50.230;18.944;2023-08-30T08:27:26;97470.13;;;18.98;85.15
63535;BME280;55128;50.230;18.944;2023-08-30T08:32:26;97477.72;;;18.75;84.54
63535;BME280;55128;50.230;18.944;2023-08-30T08:37:27;97478.13;;;18.52;86.24
63535;BME280;55128;50.230;18.944;2023-08-30T08:42:27;97484.25;;;18.44;85.82
63535;BME280;55128;50.230;18.944;2023-08-30T08:47:30;97502.56;;;18.31;86.54
63535;BME280;55128;50.230;18.944;2023-08-30T08:52:30;97503.22;;;18.43;85.88
63535;BME280;55128;50.230;18.944;2023-08-30T08:57:31;97503.34;;;18.51;86.47
63535;BME280;55128;50.230;18.944;2023-08-30T09:02:34;97499.34;;;18.55;84.89
63535;BME280;55128;50.230;18.944;2023-08-30T09:07:35;97497.75;;;18.62;83.93
63535;BME280;55128;50.230;18.944;2023-08-30T09:12:36;97506.34;;;18.38;84.76
63535;BME280;55128;50.230;18.944;2023-08-30T09:17:37;97500.72;;;18.59;84.18
63535;BME280;55128;50.230;18.944;2023-08-30T09:27:38;97507.00;;;18.50;83.72
63535;BME280;55128;50.230;18.944;2023-08-30T09:32:41;97497.84;;;18.71;83.17
63535;BME280;55128;50.230;18.944;2023-08-30T09:37:44;97500.63;;;19.07;81.19
63535;BME280;55128;50.230;18.944;2023-08-30T09:42:45;97509.13;;;18.84;81.27
63535;BME280;55128;50.230;18.944;2023-08-30T09:47:49;97509.59;;;18.97;81.11
63535;BME280;55128;50.230;18.944;2023-08-30T09:52:50;97507.16;;;19.04;81.07
63535;BME280;55128;50.230;18.944;2023-08-30T09:57:51;97509.03;;;19.03;80.77
63535;BME280;55128;50.230;18.944;2023-08-30T10:02:51;97509.16;;;19.20;79.86
63535;BME280;55128;50.230;18.944;2023-08-30T10:07:56;97513.13;;;19.43;78.66
63535;BME280;55128;50.230;18.944;2023-08-30T10:12:56;97507.97;;;19.32;79.53
63535;BME280;55128;50.230;18.944;2023-08-30T10:17:58;97507.72;;;19.08;79.22
63535;BME280;55128;50.230;18.944;2023-08-30T10:22:58;97503.09;;;19.00;79.04
63535;BME280;55128;50.230;18.944;2023-08-30T10:27:59;97498.13;;;19.23;78.65
63535;BME280;55128;50.230;18.944;2023-08-30T10:33:01;97496.47;;;19.12;78.96
63535;BME280;55128;50.230;18.944;2023-08-30T10:38:03;97502.03;;;19.11;78.74
63535;BME280;55128;50.230;18.944;2023-08-30T10:43:04;97509.78;;;19.14;78.72
63535;BME280;55128;50.230;18.944;2023-08-30T10:48:04;97511.78;;;19.12;78.28
63535;BME280;55128;50.230;18.944;2023-08-30T10:53:13;97511.78;;;19.12;80.00
63535;BME280;55128;50.230;18.944;2023-08-30T10:58:13;97515.16;;;19.14;79.08
63535;BME280;55128;50.230;18.944;2023-08-30T11:03:14;97508.69;;;19.07;79.78
63535;BME280;55128;50.230;18.944;2023-08-30T11:08:14;97507.63;;;18.72;80.57
63535;BME280;55128;50.230;18.944;2023-08-30T11:13:16;97507.31;;;18.84;80.03
63535;BME280;55128;50.230;18.944;2023-08-30T11:18:19;97507.78;;;19.52;77.88
63535;BME280;55128;50.230;18.944;2023-08-30T11:23:19;97500.16;;;19.65;75.97
63535;BME280;55128;50.230;18.944;2023-08-30T11:28:24;97503.34;;;19.78;75.27
63535;BME280;55128;50.230;18.944;2023-08-30T11:33:24;97491.09;;;19.48;76.02
63535;BME280;55128;50.230;18.944;2023-08-30T11:38:26;97489.50;;;19.73;75.70
63535;BME280;55128;50.230;18.944;2023-08-30T11:43:26;97487.00;;;19.98;75.40
63535;BME280;55128;50.230;18.944;2023-08-30T11:48:28;97499.97;;;20.29;74.38
63535;BME280;55128;50.230;18.944;2023-08-30T11:53:29;97500.72;;;20.13;73.03
63535;BME280;55128;50.230;18.944;2023-08-30T11:58:36;97497.78;;;19.80;73.39
63535;BME280;55128;50.230;18.944;2023-08-30T12:03:37;97495.56;;;19.21;76.42
63535;BME280;55128;50.230;18.944;2023-08-30T12:08:37;97503.34;;;19.42;76.04
63535;BME280;55128;50.230;18.944;2023-08-30T12:13:38;97487.97;;;19.53;74.57
63535;BME280;55128;50.230;18.944;2023-08-30T12:18:38;97490.72;;;19.61;74.93
63535;BME280;55128;50.230;18.944;2023-08-30T12:23:38;97495.97;;;19.45;75.64
63535;BME280;55128;50.230;18.944;2023-08-30T12:28:40;97500.13;;;19.21;75.86
63535;BME280;55128;50.230;18.944;2023-08-30T12:33:41;97501.38;;;19.45;75.53
63535;BME280;55128;50.230;18.944;2023-08-30T12:38:41;97502.22;;;18.99;76.91
63535;BME280;55128;50.230;18.944;2023-08-30T12:43:42;97500.72;;;18.59;79.58
63535;BME280;55128;50.230;18.944;2023-08-30T12:48:42;97498.81;;;18.79;78.85
63535;BME280;55128;50.230;18.944;2023-08-30T12:53:42;97504.41;;;19.14;77.08
63535;BME280;55128;50.230;18.944;2023-08-30T12:58:43;97503.88;;;19.46;75.65
63535;BME280;55128;50.230;18.944;2023-08-30T13:03:43;97508.06;;;18.95;77.91
63535;BME280;55128;50.230;18.944;2023-08-30T13:08:43;97511.25;;;19.08;77.78
63535;BME280;55128;50.230;18.944;2023-08-30T13:13:44;97514.66;;;18.82;79.08
63535;BME280;55128;50.230;18.944;2023-08-30T13:18:44;97523.75;;;18.34;81.89
63535;BME280;55128;50.230;18.944;2023-08-30T13:23:45;97517.00;;;18.30;82.59
63535;BME280;55128;50.230;18.944;2023-08-30T13:28:45;97513.75;;;18.26;82.60
63535;BME280;55128;50.230;18.944;2023-08-30T13:33:45;97513.50;;;18.10;83.22
63535;BME280;55128;50.230;18.944;2023-08-30T13:38:45;97520.97;;;18.16;82.95
63535;BME280;55128;50.230;18.944;2023-08-30T13:43:46;97520.13;;;18.16;82.62
63535;BME280;55128;50.230;18.944;2023-08-30T13:48:46;97527.19;;;18.17;82.97
63535;BME280;55128;50.230;18.944;2023-08-30T13:53:51;97530.06;;;17.96;83.39
63535;BME280;55128;50.230;18.944;2023-08-30T13:58:52;97523.72;;;17.97;83.72
63535;BME280;55128;50.230;18.944;2023-08-30T14:03:52;97533.47;;;17.78;85.79
63535;BME280;55128;50.230;18.944;2023-08-30T14:08:52;97525.28;;;17.70;87.21
63535;BME280;55128;50.230;18.944;2023-08-30T14:13:53;97530.50;;;17.52;88.72
63535;BME280;55128;50.230;18.944;2023-08-30T14:18:53;97528.38;;;17.75;87.53
63535;BME280;55128;50.230;18.944;2023-08-30T14:23:54;97527.66;;;17.73;88.64
63535;BME280;55128;50.230;18.944;2023-08-30T14:28:54;97532.91;;;17.65;88.92
63535;BME280;55128;50.230;18.944;2023-08-30T14:33:55;97535.72;;;17.83;88.98
63535;BME280;55128;50.230;18.944;2023-08-30T14:38:58;97533.47;;;17.68;90.07
63535;BME280;55128;50.230;18.944;2023-08-30T14:43:59;97535.59;;;17.94;89.10
63535;BME280;55128;50.230;18.944;2023-08-30T14:48:59;97527.25;;;17.97;89.23
63535;BME280;55128;50.230;18.944;2023-08-30T14:54:00;97538.09;;;18.05;89.48
63535;BME280;55128;50.230;18.944;2023-08-30T14:59:00;97549.03;;;17.84;90.19
63535;BME280;55128;50.230;18.944;2023-08-30T15:04:00;97533.03;;;17.73;90.32
63535;BME280;55128;50.230;18.944;2023-08-30T15:09:01;97538.84;;;17.88;90.46
63535;BME280;55128;50.230;18.944;2023-08-30T15:14:03;97546.03;;;18.07;89.34
63535;BME280;55128;50.230;18.944;2023-08-30T15:19:03;97557.47;;;18.09;88.29
63535;BME280;55128;50.230;18.944;2023-08-30T15:24:04;97558.63;;;17.97;88.77
63535;BME280;55128;50.230;18.944;2023-08-30T15:29:05;97551.56;;;17.86;89.47
63535;BME280;55128;50.230;18.944;2023-08-30T15:34:05;97549.56;;;17.78;89.28
63535;BME280;55128;50.230;18.944;2023-08-30T15:39:05;97556.78;;;17.48;91.73
63535;BME280;55128;50.230;18.944;2023-08-30T15:44:06;97568.22;;;17.31;92.09
63535;BME280;55128;50.230;18.944;2023-08-30T15:49:06;97562.97;;;17.20;92.10
63535;BME280;55128;50.230;18.944;2023-08-30T15:54:07;97564.06;;;17.17;92.37
63535;BME280;55128;50.230;18.944;2023-08-30T15:59:07;97583.72;;;17.08;92.95
63535;BME280;55128;50.230;18.944;2023-08-30T16:04:07;97587.00;;;17.31;91.55
63535;BME280;55128;50.230;18.944;2023-08-30T16:09:08;97579.09;;;17.39;90.63
63535;BME280;55128;50.230;18.944;2023-08-30T16:14:08;97573.44;;;17.42;91.32
63535;BME280;55128;50.230;18.944;2023-08-30T16:19:10;97574.72;;;17.38;91.26
63535;BME280;55128;50.230;18.944;2023-08-30T16:24:12;97576.09;;;17.23;92.47
63535;BME280;55128;50.230;18.944;2023-08-30T16:29:12;97582.59;;;17.20;92.37
63535;BME280;55128;50.230;18.944;2023-08-30T16:34:13;97584.53;;;17.08;93.24
63535;BME280;55128;50.230;18.944;2023-08-30T16:39:13;97582.16;;;17.15;92.20
63535;BME280;55128;50.230;18.944;2023-08-30T16:44:13;97579.16;;;16.99;92.47
63535;BME280;55128;50.230;18.944;2023-08-30T16:49:14;97590.13;;;16.86;92.52
63535;BME280;55128;50.230;18.944;2023-08-30T16:54:15;97615.41;;;16.93;92.12
63535;BME280;55128;50.230;18.944;2023-08-30T16:59:16;97610.31;;;16.90;91.80
63535;BME280;55128;50.230;18.944;2023-08-30T17:04:16;97603.88;;;16.81;92.56
63535;BME280;55128;50.230;18.944;2023-08-30T17:09:17;97604.44;;;16.75;93.31
63535;BME280;55128;50.230;18.944;2023-08-30T17:14:17;97600.47;;;16.69;93.50
63535;BME280;55128;50.230;18.944;2023-08-30T17:19:17;97607.25;;;16.74;93.08
63535;BME280;55128;50.230;18.944;2023-08-30T17:24:18;97605.81;;;16.69;93.51
63535;BME280;55128;50.230;18.944;2023-08-30T17:29:18;97589.56;;;16.61;93.43
63535;BME280;55128;50.230;18.944;2023-08-30T17:34:18;97597.75;;;16.60;93.56
63535;BME280;55128;50.230;18.944;2023-08-30T17:39:19;97603.50;;;16.55;93.48
63535;BME280;55128;50.230;18.944;2023-08-30T17:44:20;97617.34;;;16.60;93.30
63535;BME280;55128;50.230;18.944;2023-08-30T17:49:23;97611.34;;;16.47;94.52
63535;BME280;55128;50.230;18.944;2023-08-30T17:54:23;97609.94;;;16.43;94.05
63535;BME280;55128;50.230;18.944;2023-08-30T17:59:24;97611.88;;;16.41;94.54
63535;BME280;55128;50.230;18.944;2023-08-30T18:04:24;97617.16;;;16.52;93.48
63535;BME280;55128;50.230;18.944;2023-08-30T18:09:24;97620.34;;;16.46;93.52
63535;BME280;55128;50.230;18.944;2023-08-30T18:14:28;97627.09;;;16.40;94.06
63535;BME280;55128;50.230;18.944;2023-08-30T18:19:28;97631.53;;;16.51;93.42
63535;BME280;55128;50.230;18.944;2023-08-30T18:24:29;97636.19;;;16.49;94.04
63535;BME280;55128;50.230;18.944;2023-08-30T18:29:32;97649.56;;;16.49;93.67
63535;BME280;55128;50.230;18.944;2023-08-30T18:34:32;97642.06;;;16.43;94.33
63535;BME280;55128;50.230;18.944;2023-08-30T18:39:33;97634.88;;;16.43;93.69
63535;BME280;55128;50.230;18.944;2023-08-30T18:44:33;97641.84;;;16.35;94.68
63535;BME280;55128;50.230;18.944;2023-08-30T18:49:34;97641.34;;;16.41;94.20
63535;BME280;55128;50.230;18.944;2023-08-30T18:54:34;97640.78;;;16.37;94.44
63535;BME280;55128;50.230;18.944;2023-08-30T18:59:54;97644.03;;;16.41;94.47
63535;BME280;55128;50.230;18.944;2023-08-30T19:04:54;97641.09;;;16.23;95.37
63535;BME280;55128;50.230;18.944;2023-08-30T19:09:55;97641.09;;;16.23;94.91
63535;BME280;55128;50.230;18.944;2023-08-30T19:14:55;97637.56;;;16.22;94.86
63535;BME280;55128;50.230;18.944;2023-08-30T19:19:57;97637.50;;;16.33;94.00
63535;BME280;55128;50.230;18.944;2023-08-30T19:24:57;97632.41;;;16.30;94.64
63535;BME280;55128;50.230;18.944;2023-08-30T19:29:58;97636.31;;;16.26;94.78
63535;BME280;55128;50.230;18.944;2023-08-30T19:34:58;97640.91;;;16.36;94.08
63535;BME280;55128;50.230;18.944;2023-08-30T19:39:59;97642.38;;;16.28;94.33
63535;BME280;55128;50.230;18.944;2023-08-30T19:45:08;97638.94;;;16.38;94.08
63535;BME280;55128;50.230;18.944;2023-08-30T19:50:09;97639.47;;;16.31;94.49
63535;BME280;55128;50.230;18.944;2023-08-30T19:55:10;97639.97;;;16.25;95.10
63535;BME280;55128;50.230;18.944;2023-08-30T20:00:10;97634.59;;;16.25;95.13
63535;BME280;55128;50.230;18.944;2023-08-30T20:05:15;97641.44;;;16.29;94.90
63535;BME280;55128;50.230;18.944;2023-08-30T20:10:18;97649.47;;;16.29;94.85
63535;BME280;55128;50.230;18.944;2023-08-30T20:15:42;97656.13;;;16.35;94.60
63535;BME280;55128;50.230;18.944;2023-08-30T20:20:47;97666.03;;;16.23;94.87
63535;BME280;55128;50.230;18.944;2023-08-30T20:25:51;97667.50;;;16.27;95.13
63535;BME280;55128;50.230;18.944;2023-08-30T20:30:51;97666.44;;;16.19;96.25
63535;BME280;55128;50.230;18.944;2023-08-30T20:35:52;97676.50;;;16.26;96.43
63535;BME280;55128;50.230;18.944;2023-08-30T20:40:54;97673.75;;;16.38;95.12
63535;BME280;55128;50.230;18.944;2023-08-30T20:45:58;97669.19;;;16.28;95.59
63535;BME280;55128;50.230;18.944;2023-08-30T20:51:00;97666.50;;;16.28;95.96
63535;BME280;55128;50.230;18.944;2023-08-30T20:56:03;97658.00;;;16.23;96.41
63535;BME280;55128;50.230;18.944;2023-08-30T21:01:15;97664.47;;;16.21;96.17
63535;BME280;55128;50.230;18.944;2023-08-30T21:06:16;97673.88;;;16.15;96.29
63535;BME280;55128;50.230;18.944;2023-08-30T21:11:21;97669.03;;;16.09;96.70
63535;BME280;55128;50.230;18.944;2023-08-30T21:16:21;97673.69;;;16.07;96.45
63535;BME280;55128;50.230;18.944;2023-08-30T21:21:21;97686.06;;;16.08;96.66
63535;BME280;55128;50.230;18.944;2023-08-30T21:26:22;97683.72;;;15.93;97.50
63535;BME280;55128;50.230;18.944;2023-08-30T21:31:22;97675.53;;;15.95;97.28
63535;BME280;55128;50.230;18.944;2023-08-30T21:36:22;97679.97;;;15.85;97.89
63535;BME280;55128;50.230;18.944;2023-08-30T21:41:23;97679.84;;;15.86;97.12
63535;BME280;55128;50.230;18.944;2023-08-30T21:46:23;97682.88;;;15.70;97.73
63535;BME280;55128;50.230;18.944;2023-08-30T21:51:23;97685.88;;;15.56;98.61
63535;BME280;55128;50.230;18.944;2023-08-30T21:56:26;97695.09;;;15.52;98.88
63535;BME280;55128;50.230;18.944;2023-08-30T22:01:27;97688.91;;;15.51;98.77
63535;BME280;55128;50.230;18.944;2023-08-30T22:06:27;97695.09;;;15.52;98.83
63535;BME280;55128;50.230;18.944;2023-08-30T22:11:28;97692.81;;;15.47;99.16
63535;BME280;55128;50.230;18.944;2023-08-30T22:16:28;97702.19;;;15.42;99.39
63535;BME280;55128;50.230;18.944;2023-08-30T22:21:29;97705.19;;;15.48;98.78
63535;BME280;55128;50.230;18.944;2023-08-30T22:26:29;97708.88;;;15.36;99.10
63535;BME280;55128;50.230;18.944;2023-08-30T22:31:30;97708.66;;;15.28;99.90
63535;BME280;55128;50.230;18.944;2023-08-30T22:36:30;97702.69;;;15.24;99.44
63535;BME280;55128;50.230;18.944;2023-08-30T22:41:31;97707.03;;;15.25;99.69
63535;BME280;55128;50.230;18.944;2023-08-30T22:46:33;97707.88;;;15.26;99.52
63535;BME280;55128;50.230;18.944;2023-08-30T22:51:36;97711.66;;;15.23;99.73
63535;BME280;55128;50.230;18.944;2023-08-30T22:56:41;97713.38;;;15.24;100.00
63535;BME280;55128;50.230;18.944;2023-08-30T23:01:47;97722.84;;;15.17;100.00
63535;BME280;55128;50.230;18.944;2023-08-30T23:06:47;97717.00;;;15.23;100.00
63535;BME280;55128;50.230;18.944;2023-08-30T23:11:49;97721.63;;;15.32;100.00
63535;BME280;55128;50.230;18.944;2023-08-30T23:16:50;97724.69;;;15.28;100.00
63535;BME280;55128;50.230;18.944;2023-08-30T23:21:51;97715.66;;;15.40;99.84
63535;BME280;55128;50.230;18.944;2023-08-30T23:26:52;97722.56;;;15.43;99.68
63535;BME280;55128;50.230;18.944;2023-08-30T23:31:53;97716.88;;;15.36;99.80
63535;BME280;55128;50.230;18.944;2023-08-30T23:36:53;97716.16;;;15.34;100.00
63535;BME280;55128;50.230;18.944;2023-08-30T23:41:54;97724.91;;;15.47;99.24
63535;BME280;55128;50.230;18.944;2023-08-30T23:46:55;97722.09;;;15.49;99.17
63535;BME280;55128;50.230;18.944;2023-08-30T23:51:56;97719.03;;;15.53;98.99
63535;BME280;55128;50.230;18.944;2023-08-30T23:56:57;97719.44;;;15.49;98.99
